sensor_id;sensor_type;location;lat;lon;timestamp;temperature;humidity
27534;DHT22;14973;51.460;7.008;2022-12-18T00:01:13;-6.50;99.90
27534;DHT22;14973;51.460;7.008;2022-12-18T00:03:39;-6.50;99.90
27534;DHT22;14973;51.460;7.008;2022-12-18T00:06:05;-6.50;99.90
27534;DHT22;14973;51.460;7.008;2022-12-18T00:08:30;-6.50;99.90
27534;DHT22;14973;51.460;7.008;2022-12-18T00:11:06;-6.50;99.90
27534;DHT22;14973;51.460;7.008;2022-12-18T00:13:33;-6.40;99.90
27534;DHT22;14973;51.460;7.008;2022-12-18T00:16:03;-6.30;99.90
27534;DHT22;14973;51.460;7.008;2022-12-18T00:18:29;-6.40;99.90
27534;DHT22;14973;51.460;7.008;2022-12-18T00:20:59;-6.50;99.90
27534;DHT22;14973;51.460;7.008;2022-12-18T00:23:25;-6.50;99.90
27534;DHT22;14973;51.460;7.008;2022-12-18T00:25:51;-6.50;99.90
27534;DHT22;14973;51.460;7.008;2022-12-18T00:28:17;-6.50;99.90
27534;DHT22;14973;51.460;7.008;2022-12-18T00:30:42;-6.50;99.90
27534;DHT22;14973;51.460;7.008;2022-12-18T00:33:08;-6.60;99.90
27534;DHT22;14973;51.460;7.008;2022-12-18T00:35:33;-6.60;99.90
27534;DHT22;14973;51.460;7.008;2022-12-18T00:37:59;-6.60;99.90
27534;DHT22;14973;51.460;7.008;2022-12-18T00:40:24;-6.70;99.90
27534;DHT22;14973;51.460;7.008;2022-12-18T00:42:50;-6.70;99.90
27534;DHT22;14973;51.460;7.008;2022-12-18T00:45:26;-6.80;99.90
27534;DHT22;14973;51.460;7.008;2022-12-18T00:47:52;-6.90;99.90
27534;DHT22;14973;51.460;7.008;2022-12-18T00:50:18;-6.90;99.90
27534;DHT22;14973;51.460;7.008;2022-12-18T00:52:44;-6.90;99.90
27534;DHT22;14973;51.460;7.008;2022-12-18T00:55:11;-6.90;99.90
27534;DHT22;14973;51.460;7.008;2022-12-18T00:57:37;-6.90;99.90
27534;DHT22;14973;51.460;7.008;2022-12-18T01:00:05;-6.90;99.90
27534;DHT22;14973;51.460;7.008;2022-12-18T01:02:30;-6.90;99.90
27534;DHT22;14973;51.460;7.008;2022-12-18T01:04:56;-6.90;99.90
27534;DHT22;14973;51.460;7.008;2022-12-18T01:07:22;-6.90;99.90
27534;DHT22;14973;51.460;7.008;2022-12-18T01:09:47;-7.00;99.90
27534;DHT22;14973;51.460;7.008;2022-12-18T01:12:13;-7.00;99.90
27534;DHT22;14973;51.460;7.008;2022-12-18T01:14:39;-7.00;99.90
27534;DHT22;14973;51.460;7.008;2022-12-18T01:17:04;-7.00;99.90
27534;DHT22;14973;51.460;7.008;2022-12-18T01:19:30;-7.10;99.90
27534;DHT22;14973;51.460;7.008;2022-12-18T01:21:56;-7.10;99.90
27534;DHT22;14973;51.460;7.008;2022-12-18T01:24:21;-6.90;99.90
27534;DHT22;14973;51.460;7.008;2022-12-18T01:26:47;-6.90;99.90
27534;DHT22;14973;51.460;7.008;2022-12-18T01:29:12;-6.70;99.90
27534;DHT22;14973;51.460;7.008;2022-12-18T01:31:38;-6.70;99.90
27534;DHT22;14973;51.460;7.008;2022-12-18T01:34:05;-6.70;99.90
27534;DHT22;14973;51.460;7.008;2022-12-18T01:36:34;-6.70;99.90
27534;DHT22;14973;51.460;7.008;2022-12-18T01:39:02;-6.60;99.90
27534;DHT22;14973;51.460;7.008;2022-12-18T01:41:30;-6.60;99.90
27534;DHT22;14973;51.460;7.008;2022-12-18T01:47:27;-6.80;99.90
27534;DHT22;14973;51.460;7.008;2022-12-18T01:49:55;-6.80;99.90
27534;DHT22;14973;51.460;7.008;2022-12-18T01:52:21;-6.80;99.90
27534;DHT22;14973;51.460;7.008;2022-12-18T01:54:48;-6.80;99.90
27534;DHT22;14973;51.460;7.008;2022-12-18T01:57:15;-6.80;99.90
27534;DHT22;14973;51.460;7.008;2022-12-18T01:59:43;-6.80;99.90
27534;DHT22;14973;51.460;7.008;2022-12-18T02:02:11;-6.90;99.90
27534;DHT22;14973;51.460;7.008;2022-12-18T02:04:37;-6.90;99.90
27534;DHT22;14973;51.460;7.008;2022-12-18T02:07:28;-6.90;99.90
27534;DHT22;14973;51.460;7.008;2022-12-18T02:10:13;-6.80;99.90
27534;DHT22;14973;51.460;7.008;2022-12-18T02:12:48;-6.90;99.90
27534;DHT22;14973;51.460;7.008;2022-12-18T02:18:05;-6.90;99.90
27534;DHT22;14973;51.460;7.008;2022-12-18T02:20:36;-6.90;99.90
27534;DHT22;14973;51.460;7.008;2022-12-18T02:28:20;-6.90;99.90
27534;DHT22;14973;51.460;7.008;2022-12-18T02:30:48;-6.90;99.90
27534;DHT22;14973;51.460;7.008;2022-12-18T02:33:15;-7.00;99.90
27534;DHT22;14973;51.460;7.008;2022-12-18T02:35:42;-7.00;99.90
27534;DHT22;14973;51.460;7.008;2022-12-18T02:38:10;-7.00;99.90
27534;DHT22;14973;51.460;7.008;2022-12-18T02:40:38;-7.10;99.90
27534;DHT22;14973;51.460;7.008;2022-12-18T02:43:09;-7.10;99.90
27534;DHT22;14973;51.460;7.008;2022-12-18T02:45:46;-7.10;99.90
27534;DHT22;14973;51.460;7.008;2022-12-18T02:48:11;-7.10;99.90
27534;DHT22;14973;51.460;7.008;2022-12-18T02:54:06;-7.20;99.90
27534;DHT22;14973;51.460;7.008;2022-12-18T02:56:38;-7.30;99.90
27534;DHT22;14973;51.460;7.008;2022-12-18T02:59:15;-7.20;99.90
27534;DHT22;14973;51.460;7.008;2022-12-18T03:01:58;-7.20;99.90
27534;DHT22;14973;51.460;7.008;2022-12-18T03:04:34;-7.20;99.90
27534;DHT22;14973;51.460;7.008;2022-12-18T03:07:05;-7.20;99.90
27534;DHT22;14973;51.460;7.008;2022-12-18T03:09:42;-7.30;99.90
27534;DHT22;14973;51.460;7.008;2022-12-18T03:12:17;-7.20;99.90
27534;DHT22;14973;51.460;7.008;2022-12-18T03:15:36;-7.20;99.90
27534;DHT22;14973;51.460;7.008;2022-12-18T03:18:11;-7.30;99.90
27534;DHT22;14973;51.460;7.008;2022-12-18T03:20:39;-7.20;99.90
27534;DHT22;14973;51.460;7.008;2022-12-18T03:23:13;-7.20;99.90
27534;DHT22;14973;51.460;7.008;2022-12-18T03:25:42;-7.20;99.90
27534;DHT22;14973;51.460;7.008;2022-12-18T03:28:13;-7.30;99.90
27534;DHT22;14973;51.460;7.008;2022-12-18T03:30:41;-7.30;99.90
27534;DHT22;14973;51.460;7.008;2022-12-18T03:33:12;-7.30;99.90
27534;DHT22;14973;51.460;7.008;2022-12-18T03:35:42;-7.30;99.90
27534;DHT22;14973;51.460;7.008;2022-12-18T03:38:08;-7.40;99.90
27534;DHT22;14973;51.460;7.008;2022-12-18T03:46:40;-7.40;99.90
27534;DHT22;14973;51.460;7.008;2022-12-18T03:49:11;-7.50;99.90
27534;DHT22;14973;51.460;7.008;2022-12-18T03:51:52;-7.60;99.90
27534;DHT22;14973;51.460;7.008;2022-12-18T03:54:20;-7.60;99.90
27534;DHT22;14973;51.460;7.008;2022-12-18T03:56:49;-7.60;99.90
27534;DHT22;14973;51.460;7.008;2022-12-18T03:59:19;-7.60;99.90
27534;DHT22;14973;51.460;7.008;2022-12-18T04:01:48;-7.70;99.90
27534;DHT22;14973;51.460;7.008;2022-12-18T04:04:16;-7.70;99.90
27534;DHT22;14973;51.460;7.008;2022-12-18T04:06:43;-7.70;99.90
27534;DHT22;14973;51.460;7.008;2022-12-18T04:09:10;-7.60;99.90
27534;DHT22;14973;51.460;7.008;2022-12-18T04:11:36;-7.60;99.90
27534;DHT22;14973;51.460;7.008;2022-12-18T04:14:01;-7.60;99.90
27534;DHT22;14973;51.460;7.008;2022-12-18T04:16:27;-7.60;99.90
27534;DHT22;14973;51.460;7.008;2022-12-18T04:18:53;-7.60;99.90
27534;DHT22;14973;51.460;7.008;2022-12-18T04:21:19;-7.60;99.90
27534;DHT22;14973;51.460;7.008;2022-12-18T04:23:45;-7.60;99.90
27534;DHT22;14973;51.460;7.008;2022-12-18T04:26:11;-7.60;99.90
27534;DHT22;14973;51.460;7.008;2022-12-18T04:28:36;-7.60;99.90
27534;DHT22;14973;51.460;7.008;2022-12-18T04:31:02;-7.50;99.90
27534;DHT22;14973;51.460;7.008;2022-12-18T04:33:28;-7.50;99.90
27534;DHT22;14973;51.460;7.008;2022-12-18T04:35:53;-7.50;99.90
27534;DHT22;14973;51.460;7.008;2022-12-18T04:38:19;-7.50;99.90
27534;DHT22;14973;51.460;7.008;2022-12-18T04:40:44;-7.40;99.90
27534;DHT22;14973;51.460;7.008;2022-12-18T04:43:10;-7.40;99.90
27534;DHT22;14973;51.460;7.008;2022-12-18T04:45:36;-7.40;99.90
27534;DHT22;14973;51.460;7.008;2022-12-18T04:48:02;-7.30;99.90
27534;DHT22;14973;51.460;7.008;2022-12-18T04:50:28;-7.00;99.90
27534;DHT22;14973;51.460;7.008;2022-12-18T04:52:54;-6.80;99.90
27534;DHT22;14973;51.460;7.008;2022-12-18T04:55:20;-6.80;99.90
27534;DHT22;14973;51.460;7.008;2022-12-18T04:57:46;-6.60;99.90
27534;DHT22;14973;51.460;7.008;2022-12-18T05:00:12;-6.60;99.90
27534;DHT22;14973;51.460;7.008;2022-12-18T05:02:38;-6.60;99.90
27534;DHT22;14973;51.460;7.008;2022-12-18T05:05:04;-6.60;99.90
27534;DHT22;14973;51.460;7.008;2022-12-18T05:07:29;-6.60;99.90
27534;DHT22;14973;51.460;7.008;2022-12-18T05:09:55;-6.70;99.90
27534;DHT22;14973;51.460;7.008;2022-12-18T05:12:24;-6.70;99.90
27534;DHT22;14973;51.460;7.008;2022-12-18T05:14:50;-6.80;99.90
27534;DHT22;14973;51.460;7.008;2022-12-18T05:17:15;-6.80;99.90
27534;DHT22;14973;51.460;7.008;2022-12-18T05:19:41;-6.40;99.90
27534;DHT22;14973;51.460;7.008;2022-12-18T05:22:07;-5.90;99.90
27534;DHT22;14973;51.460;7.008;2022-12-18T05:24:32;-5.30;99.90
27534;DHT22;14973;51.460;7.008;2022-12-18T05:26:58;-4.80;99.90
27534;DHT22;14973;51.460;7.008;2022-12-18T05:29:24;-4.30;99.90
27534;DHT22;14973;51.460;7.008;2022-12-18T05:31:49;-4.10;99.90
27534;DHT22;14973;51.460;7.008;2022-12-18T05:34:15;-3.70;99.90
27534;DHT22;14973;51.460;7.008;2022-12-18T05:36:41;-3.40;99.90
27534;DHT22;14973;51.460;7.008;2022-12-18T05:39:07;-3.10;99.90
27534;DHT22;14973;51.460;7.008;2022-12-18T05:41:32;-2.90;96.60
27534;DHT22;14973;51.460;7.008;2022-12-18T05:43:59;-2.70;92.40
27534;DHT22;14973;51.460;7.008;2022-12-18T05:46:25;-2.80;89.80
27534;DHT22;14973;51.460;7.008;2022-12-18T05:48:50;-2.80;88.20
27534;DHT22;14973;51.460;7.008;2022-12-18T05:51:18;-2.80;87.50
27534;DHT22;14973;51.460;7.008;2022-12-18T05:53:45;-2.80;88.70
27534;DHT22;14973;51.460;7.008;2022-12-18T05:56:15;-2.90;87.80
27534;DHT22;14973;51.460;7.008;2022-12-18T05:58:41;-3.00;85.00
27534;DHT22;14973;51.460;7.008;2022-12-18T06:01:18;-3.20;78.80
27534;DHT22;14973;51.460;7.008;2022-12-18T06:03:44;-3.60;65.30
27534;DHT22;14973;51.460;7.008;2022-12-18T06:06:17;-4.00;66.60
27534;DHT22;14973;51.460;7.008;2022-12-18T06:08:43;-4.30;70.80
27534;DHT22;14973;51.460;7.008;2022-12-18T06:11:09;-4.60;71.70
27534;DHT22;14973;51.460;7.008;2022-12-18T06:13:35;-4.90;76.10
27534;DHT22;14973;51.460;7.008;2022-12-18T06:16:04;-5.10;82.50
27534;DHT22;14973;51.460;7.008;2022-12-18T06:18:31;-5.30;87.20
27534;DHT22;14973;51.460;7.008;2022-12-18T06:20:57;-5.60;90.60
27534;DHT22;14973;51.460;7.008;2022-12-18T06:23:23;-5.70;93.90
27534;DHT22;14973;51.460;7.008;2022-12-18T06:25:49;-5.80;96.10
27534;DHT22;14973;51.460;7.008;2022-12-18T06:28:15;-5.80;97.40
27534;DHT22;14973;51.460;7.008;2022-12-18T06:30:44;-6.00;98.10
27534;DHT22;14973;51.460;7.008;2022-12-18T06:33:10;-6.10;99.90
27534;DHT22;14973;51.460;7.008;2022-12-18T06:35:35;-6.20;99.90
27534;DHT22;14973;51.460;7.008;2022-12-18T06:38:02;-6.20;99.90
27534;DHT22;14973;51.460;7.008;2022-12-18T06:40:28;-6.30;99.90
27534;DHT22;14973;51.460;7.008;2022-12-18T06:42:53;-6.40;99.90
27534;DHT22;14973;51.460;7.008;2022-12-18T06:45:19;-6.30;99.90
27534;DHT22;14973;51.460;7.008;2022-12-18T06:47:44;-6.30;99.90
27534;DHT22;14973;51.460;7.008;2022-12-18T06:50:11;-6.30;99.90
27534;DHT22;14973;51.460;7.008;2022-12-18T06:52:37;-6.30;99.90
27534;DHT22;14973;51.460;7.008;2022-12-18T06:55:04;-6.40;99.90
27534;DHT22;14973;51.460;7.008;2022-12-18T06:57:30;-6.50;99.90
27534;DHT22;14973;51.460;7.008;2022-12-18T06:59:55;-6.50;99.90
27534;DHT22;14973;51.460;7.008;2022-12-18T07:02:21;-6.60;99.90
27534;DHT22;14973;51.460;7.008;2022-12-18T07:04:46;-6.70;99.90
27534;DHT22;14973;51.460;7.008;2022-12-18T07:07:12;-6.70;99.90
27534;DHT22;14973;51.460;7.008;2022-12-18T07:09:37;-6.70;99.90
27534;DHT22;14973;51.460;7.008;2022-12-18T07:12:03;-6.70;99.90
27534;DHT22;14973;51.460;7.008;2022-12-18T07:14:30;-6.70;99.90
27534;DHT22;14973;51.460;7.008;2022-12-18T07:16:55;-6.70;99.90
27534;DHT22;14973;51.460;7.008;2022-12-18T07:19:21;-6.60;99.90
27534;DHT22;14973;51.460;7.008;2022-12-18T07:21:46;-6.60;99.90
27534;DHT22;14973;51.460;7.008;2022-12-18T07:24:12;-6.50;99.90
27534;DHT22;14973;51.460;7.008;2022-12-18T07:26:38;-6.50;99.90
27534;DHT22;14973;51.460;7.008;2022-12-18T07:29:03;-6.50;99.90
27534;DHT22;14973;51.460;7.008;2022-12-18T07:31:29;-6.60;99.90
27534;DHT22;14973;51.460;7.008;2022-12-18T07:33:55;-6.50;99.90
27534;DHT22;14973;51.460;7.008;2022-12-18T07:36:21;-6.50;99.90
27534;DHT22;14973;51.460;7.008;2022-12-18T07:38:48;-6.40;99.90
27534;DHT22;14973;51.460;7.008;2022-12-18T07:41:14;-6.20;99.90
27534;DHT22;14973;51.460;7.008;2022-12-18T07:43:41;-6.30;99.90
27534;DHT22;14973;51.460;7.008;2022-12-18T07:46:07;-6.30;99.90
27534;DHT22;14973;51.460;7.008;2022-12-18T07:48:33;-6.30;99.90
27534;DHT22;14973;51.460;7.008;2022-12-18T07:51:04;-6.30;99.90
27534;DHT22;14973;51.460;7.008;2022-12-18T07:53:31;-6.30;99.90
27534;DHT22;14973;51.460;7.008;2022-12-18T07:55:58;-6.30;99.90
27534;DHT22;14973;51.460;7.008;2022-12-18T07:58:24;-6.30;99.90
27534;DHT22;14973;51.460;7.008;2022-12-18T08:00:50;-6.30;99.90
27534;DHT22;14973;51.460;7.008;2022-12-18T08:03:16;-6.20;99.90
27534;DHT22;14973;51.460;7.008;2022-12-18T08:05:42;-6.20;99.90
27534;DHT22;14973;51.460;7.008;2022-12-18T08:08:07;-6.10;99.90
27534;DHT22;14973;51.460;7.008;2022-12-18T08:10:33;-6.10;99.90
27534;DHT22;14973;51.460;7.008;2022-12-18T08:12:58;-6.00;99.90
27534;DHT22;14973;51.460;7.008;2022-12-18T08:15:24;-5.90;99.90
27534;DHT22;14973;51.460;7.008;2022-12-18T08:17:49;-5.80;99.90
27534;DHT22;14973;51.460;7.008;2022-12-18T08:20:15;-5.70;99.90
27534;DHT22;14973;51.460;7.008;2022-12-18T08:22:42;-5.60;99.90
27534;DHT22;14973;51.460;7.008;2022-12-18T08:25:08;-5.50;99.90
27534;DHT22;14973;51.460;7.008;2022-12-18T08:27:34;-5.50;99.90
27534;DHT22;14973;51.460;7.008;2022-12-18T08:29:59;-5.50;99.90
27534;DHT22;14973;51.460;7.008;2022-12-18T08:32:26;-5.40;99.90
27534;DHT22;14973;51.460;7.008;2022-12-18T08:34:53;-5.30;99.90
27534;DHT22;14973;51.460;7.008;2022-12-18T08:37:18;-5.30;99.90
27534;DHT22;14973;51.460;7.008;2022-12-18T08:39:44;-5.20;99.90
27534;DHT22;14973;51.460;7.008;2022-12-18T08:42:10;-5.10;99.90
27534;DHT22;14973;51.460;7.008;2022-12-18T08:44:54;-5.00;99.90
27534;DHT22;14973;51.460;7.008;2022-12-18T08:47:20;-4.80;99.90
27534;DHT22;14973;51.460;7.008;2022-12-18T08:49:45;-4.80;97.70
27534;DHT22;14973;51.460;7.008;2022-12-18T08:52:11;-4.70;96.70
27534;DHT22;14973;51.460;7.008;2022-12-18T08:54:39;-4.60;94.40
27534;DHT22;14973;51.460;7.008;2022-12-18T08:57:05;-4.50;94.00
27534;DHT22;14973;51.460;7.008;2022-12-18T08:59:30;-4.40;94.50
27534;DHT22;14973;51.460;7.008;2022-12-18T09:01:56;-4.20;94.70
27534;DHT22;14973;51.460;7.008;2022-12-18T09:04:22;-3.90;95.00
27534;DHT22;14973;51.460;7.008;2022-12-18T09:06:47;-3.50;89.40
27534;DHT22;14973;51.460;7.008;2022-12-18T09:09:13;-2.80;61.90
27534;DHT22;14973;51.460;7.008;2022-12-18T09:11:39;-2.20;31.30
27534;DHT22;14973;51.460;7.008;2022-12-18T09:14:04;-1.40;1.00
27534;DHT22;14973;51.460;7.008;2022-12-18T09:16:31;-1.00;1.00
27534;DHT22;14973;51.460;7.008;2022-12-18T09:18:58;-0.80;1.00
27534;DHT22;14973;51.460;7.008;2022-12-18T09:21:29;-0.20;1.00
27534;DHT22;14973;51.460;7.008;2022-12-18T09:23:56;0.10;1.00
27534;DHT22;14973;51.460;7.008;2022-12-18T09:26:23;0.30;1.00
27534;DHT22;14973;51.460;7.008;2022-12-18T09:28:49;0.40;99.90
27534;DHT22;14973;51.460;7.008;2022-12-18T09:31:17;0.50;1.00
27534;DHT22;14973;51.460;7.008;2022-12-18T09:33:42;0.70;1.00
27534;DHT22;14973;51.460;7.008;2022-12-18T09:36:10;0.70;1.00
27534;DHT22;14973;51.460;7.008;2022-12-18T09:38:36;0.70;1.00
27534;DHT22;14973;51.460;7.008;2022-12-18T09:44:01;0.90;99.90
27534;DHT22;14973;51.460;7.008;2022-12-18T09:46:31;1.10;99.90
27534;DHT22;14973;51.460;7.008;2022-12-18T09:49:01;1.20;1.00
27534;DHT22;14973;51.460;7.008;2022-12-18T09:51:30;1.40;99.90
27534;DHT22;14973;51.460;7.008;2022-12-18T09:54:07;1.50;1.00
27534;DHT22;14973;51.460;7.008;2022-12-18T09:56:41;1.70;1.00
27534;DHT22;14973;51.460;7.008;2022-12-18T09:59:23;1.80;1.00
27534;DHT22;14973;51.460;7.008;2022-12-18T10:01:49;1.80;48.70
27534;DHT22;14973;51.460;7.008;2022-12-18T10:04:15;1.90;1.00
27534;DHT22;14973;51.460;7.008;2022-12-18T10:06:46;1.90;99.90
27534;DHT22;14973;51.460;7.008;2022-12-18T10:12:36;2.30;99.90
27534;DHT22;14973;51.460;7.008;2022-12-18T10:16:19;2.40;1.00
27534;DHT22;14973;51.460;7.008;2022-12-18T10:21:13;2.60;1.00
27534;DHT22;14973;51.460;7.008;2022-12-18T10:23:50;2.80;99.90
27534;DHT22;14973;51.460;7.008;2022-12-18T10:26:19;2.90;99.90
27534;DHT22;14973;51.460;7.008;2022-12-18T10:28:45;3.00;99.90
27534;DHT22;14973;51.460;7.008;2022-12-18T10:31:23;3.00;99.90
27534;DHT22;14973;51.460;7.008;2022-12-18T10:33:49;3.00;99.90
27534;DHT22;14973;51.460;7.008;2022-12-18T10:36:14;3.20;43.40
27534;DHT22;14973;51.460;7.008;2022-12-18T10:38:40;3.30;22.90
27534;DHT22;14973;51.460;7.008;2022-12-18T10:43:44;3.30;1.00
27534;DHT22;14973;51.460;7.008;2022-12-18T10:48:56;3.40;1.00
27534;DHT22;14973;51.460;7.008;2022-12-18T10:51:36;3.40;1.00
27534;DHT22;14973;51.460;7.008;2022-12-18T10:54:12;3.40;1.00
27534;DHT22;14973;51.460;7.008;2022-12-18T10:56:39;3.60;1.00
27534;DHT22;14973;51.460;7.008;2022-12-18T10:59:10;3.80;1.00
27534;DHT22;14973;51.460;7.008;2022-12-18T11:01:55;3.80;1.00
27534;DHT22;14973;51.460;7.008;2022-12-18T11:07:05;3.90;1.00
27534;DHT22;14973;51.460;7.008;2022-12-18T11:09:35;3.90;1.00
27534;DHT22;14973;51.460;7.008;2022-12-18T11:12:14;3.90;1.00
27534;DHT22;14973;51.460;7.008;2022-12-18T11:14:51;4.00;1.00
27534;DHT22;14973;51.460;7.008;2022-12-18T11:19:44;3.80;1.00
27534;DHT22;14973;51.460;7.008;2022-12-18T11:24:56;3.90;1.00
27534;DHT22;14973;51.460;7.008;2022-12-18T11:27:22;4.00;1.00
27534;DHT22;14973;51.460;7.008;2022-12-18T11:29:50;4.10;1.00
27534;DHT22;14973;51.460;7.008;2022-12-18T11:32:38;4.00;1.00
27534;DHT22;14973;51.460;7.008;2022-12-18T11:35:19;4.10;1.00
27534;DHT22;14973;51.460;7.008;2022-12-18T11:37:54;4.20;99.90
27534;DHT22;14973;51.460;7.008;2022-12-18T11:40:30;4.20;1.00
27534;DHT22;14973;51.460;7.008;2022-12-18T11:43:28;4.30;1.00
27534;DHT22;14973;51.460;7.008;2022-12-18T11:46:05;4.50;99.90
27534;DHT22;14973;51.460;7.008;2022-12-18T11:48:41;4.60;99.90
27534;DHT22;14973;51.460;7.008;2022-12-18T11:51:15;4.80;99.90
27534;DHT22;14973;51.460;7.008;2022-12-18T11:53:44;4.70;99.90
27534;DHT22;14973;51.460;7.008;2022-12-18T11:56:32;4.60;99.90
27534;DHT22;14973;51.460;7.008;2022-12-18T11:59:04;4.70;99.90
27534;DHT22;14973;51.460;7.008;2022-12-18T12:01:51;4.80;99.90
27534;DHT22;14973;51.460;7.008;2022-12-18T12:09:53;5.00;99.90
27534;DHT22;14973;51.460;7.008;2022-12-18T12:21:12;5.20;99.90
27534;DHT22;14973;51.460;7.008;2022-12-18T12:25:50;5.30;99.90
27534;DHT22;14973;51.460;7.008;2022-12-18T12:31:04;5.00;99.90
27534;DHT22;14973;51.460;7.008;2022-12-18T12:36:35;4.70;42.90
27534;DHT22;14973;51.460;7.008;2022-12-18T12:39:07;4.50;1.00
27534;DHT22;14973;51.460;7.008;2022-12-18T12:41:36;4.40;99.90
27534;DHT22;14973;51.460;7.008;2022-12-18T12:44:25;4.20;1.00
27534;DHT22;14973;51.460;7.008;2022-12-18T12:46:52;3.90;99.90
27534;DHT22;14973;51.460;7.008;2022-12-18T12:49:25;3.90;1.00
27534;DHT22;14973;51.460;7.008;2022-12-18T12:52:05;3.90;99.90
27534;DHT22;14973;51.460;7.008;2022-12-18T12:54:32;4.10;99.90
27534;DHT22;14973;51.460;7.008;2022-12-18T13:02:41;4.40;99.90
27534;DHT22;14973;51.460;7.008;2022-12-18T13:05:13;4.50;99.90
27534;DHT22;14973;51.460;7.008;2022-12-18T13:10:50;4.60;99.90
27534;DHT22;14973;51.460;7.008;2022-12-18T13:13:52;4.60;99.90
27534;DHT22;14973;51.460;7.008;2022-12-18T13:16:19;4.50;99.90
27534;DHT22;14973;51.460;7.008;2022-12-18T13:18:55;4.50;99.90
27534;DHT22;14973;51.460;7.008;2022-12-18T13:21:30;4.40;99.90
27534;DHT22;14973;51.460;7.008;2022-12-18T13:23:56;4.40;99.90
27534;DHT22;14973;51.460;7.008;2022-12-18T13:34:23;4.40;99.90
27534;DHT22;14973;51.460;7.008;2022-12-18T13:36:50;4.40;1.00
27534;DHT22;14973;51.460;7.008;2022-12-18T13:41:52;4.20;1.00
27534;DHT22;14973;51.460;7.008;2022-12-18T13:46:51;4.20;1.00
27534;DHT22;14973;51.460;7.008;2022-12-18T13:49:26;4.20;1.00
27534;DHT22;14973;51.460;7.008;2022-12-18T13:51:55;4.00;1.00
27534;DHT22;14973;51.460;7.008;2022-12-18T13:56:56;3.90;1.00
27534;DHT22;14973;51.460;7.008;2022-12-18T13:59:35;3.90;1.00
27534;DHT22;14973;51.460;7.008;2022-12-18T14:02:28;3.80;1.00
27534;DHT22;14973;51.460;7.008;2022-12-18T14:04:54;3.80;1.00
27534;DHT22;14973;51.460;7.008;2022-12-18T14:07:25;3.90;1.00
27534;DHT22;14973;51.460;7.008;2022-12-18T14:09:59;3.90;1.00
27534;DHT22;14973;51.460;7.008;2022-12-18T14:12:30;3.80;1.00
27534;DHT22;14973;51.460;7.008;2022-12-18T14:15:31;3.80;1.00
27534;DHT22;14973;51.460;7.008;2022-12-18T14:18:30;3.80;1.00
27534;DHT22;14973;51.460;7.008;2022-12-18T14:20:58;3.70;1.00
27534;DHT22;14973;51.460;7.008;2022-12-18T14:23:40;3.60;1.00
27534;DHT22;14973;51.460;7.008;2022-12-18T14:26:27;3.60;1.00
27534;DHT22;14973;51.460;7.008;2022-12-18T14:29:17;3.50;1.00
27534;DHT22;14973;51.460;7.008;2022-12-18T14:31:43;3.50;1.00
27534;DHT22;14973;51.460;7.008;2022-12-18T14:34:18;3.50;1.00
27534;DHT22;14973;51.460;7.008;2022-12-18T14:36:53;3.50;1.00
27534;DHT22;14973;51.460;7.008;2022-12-18T14:39:21;3.50;1.00
27534;DHT22;14973;51.460;7.008;2022-12-18T14:41:49;3.60;1.00
27534;DHT22;14973;51.460;7.008;2022-12-18T14:44:15;3.50;1.00
27534;DHT22;14973;51.460;7.008;2022-12-18T14:46:43;3.50;1.00
27534;DHT22;14973;51.460;7.008;2022-12-18T14:49:31;3.40;1.00
27534;DHT22;14973;51.460;7.008;2022-12-18T14:52:06;3.50;1.00
27534;DHT22;14973;51.460;7.008;2022-12-18T14:54:34;3.40;1.00
27534;DHT22;14973;51.460;7.008;2022-12-18T14:57:32;3.40;1.00
27534;DHT22;14973;51.460;7.008;2022-12-18T15:00:18;3.40;1.00
27534;DHT22;14973;51.460;7.008;2022-12-18T15:02:52;3.30;1.00
27534;DHT22;14973;51.460;7.008;2022-12-18T15:05:27;3.40;1.00
27534;DHT22;14973;51.460;7.008;2022-12-18T15:07:55;3.30;1.00
27534;DHT22;14973;51.460;7.008;2022-12-18T15:10:25;3.30;1.00
27534;DHT22;14973;51.460;7.008;2022-12-18T15:18:15;3.20;1.00
27534;DHT22;14973;51.460;7.008;2022-12-18T15:26:16;3.20;1.00
27534;DHT22;14973;51.460;7.008;2022-12-18T15:28:51;3.10;1.00
27534;DHT22;14973;51.460;7.008;2022-12-18T15:36:19;3.10;1.00
27534;DHT22;14973;51.460;7.008;2022-12-18T15:38:49;3.10;1.00
27534;DHT22;14973;51.460;7.008;2022-12-18T15:41:17;3.00;1.00
27534;DHT22;14973;51.460;7.008;2022-12-18T15:43:44;3.10;1.00
27534;DHT22;14973;51.460;7.008;2022-12-18T15:48:48;3.00;99.90
27534;DHT22;14973;51.460;7.008;2022-12-18T15:51:26;3.00;99.90
27534;DHT22;14973;51.460;7.008;2022-12-18T15:53:55;3.00;99.90
27534;DHT22;14973;51.460;7.008;2022-12-18T15:56:22;3.00;99.90
27534;DHT22;14973;51.460;7.008;2022-12-18T15:59:11;3.00;99.90
27534;DHT22;14973;51.460;7.008;2022-12-18T16:01:38;3.00;99.90
27534;DHT22;14973;51.460;7.008;2022-12-18T16:04:03;3.00;1.00
27534;DHT22;14973;51.460;7.008;2022-12-18T16:06:29;2.90;1.00
27534;DHT22;14973;51.460;7.008;2022-12-18T16:08:54;2.90;1.00
27534;DHT22;14973;51.460;7.008;2022-12-18T16:11:25;2.90;99.90
27534;DHT22;14973;51.460;7.008;2022-12-18T16:16:30;2.80;99.90
27534;DHT22;14973;51.460;7.008;2022-12-18T16:18:56;2.70;1.00
27534;DHT22;14973;51.460;7.008;2022-12-18T16:21:21;2.80;1.00
27534;DHT22;14973;51.460;7.008;2022-12-18T16:23:47;2.90;1.00
27534;DHT22;14973;51.460;7.008;2022-12-18T16:26:12;2.80;22.80
27534;DHT22;14973;51.460;7.008;2022-12-18T16:28:38;2.70;99.90
27534;DHT22;14973;51.460;7.008;2022-12-18T16:31:04;2.70;1.00
27534;DHT22;14973;51.460;7.008;2022-12-18T16:33:30;2.60;1.00
27534;DHT22;14973;51.460;7.008;2022-12-18T16:35:55;2.60;99.90
27534;DHT22;14973;51.460;7.008;2022-12-18T16:38:21;2.60;99.90
27534;DHT22;14973;51.460;7.008;2022-12-18T16:40:47;2.70;99.90
27534;DHT22;14973;51.460;7.008;2022-12-18T16:43:31;2.80;99.90
27534;DHT22;14973;51.460;7.008;2022-12-18T16:45:58;2.80;99.90
27534;DHT22;14973;51.460;7.008;2022-12-18T16:48:24;2.80;1.00
27534;DHT22;14973;51.460;7.008;2022-12-18T16:50:49;2.80;1.00
27534;DHT22;14973;51.460;7.008;2022-12-18T16:53:15;2.80;1.00
27534;DHT22;14973;51.460;7.008;2022-12-18T16:55:41;2.80;92.70
27534;DHT22;14973;51.460;7.008;2022-12-18T16:58:06;2.80;99.90
27534;DHT22;14973;51.460;7.008;2022-12-18T17:00:32;2.70;1.00
27534;DHT22;14973;51.460;7.008;2022-12-18T17:02:57;2.70;99.90
27534;DHT22;14973;51.460;7.008;2022-12-18T17:05:23;2.60;1.00
27534;DHT22;14973;51.460;7.008;2022-12-18T17:07:49;2.60;99.90
27534;DHT22;14973;51.460;7.008;2022-12-18T17:10:14;2.60;99.90
27534;DHT22;14973;51.460;7.008;2022-12-18T17:12:40;2.50;1.00
27534;DHT22;14973;51.460;7.008;2022-12-18T17:15:07;2.50;99.90
27534;DHT22;14973;51.460;7.008;2022-12-18T17:17:33;2.50;99.90
27534;DHT22;14973;51.460;7.008;2022-12-18T17:20:00;2.50;1.00
27534;DHT22;14973;51.460;7.008;2022-12-18T17:22:26;2.50;1.00
27534;DHT22;14973;51.460;7.008;2022-12-18T17:24:52;2.40;13.00
27534;DHT22;14973;51.460;7.008;2022-12-18T17:27:18;2.40;90.30
27534;DHT22;14973;51.460;7.008;2022-12-18T17:29:43;2.30;99.90
27534;DHT22;14973;51.460;7.008;2022-12-18T17:32:09;2.30;99.90
27534;DHT22;14973;51.460;7.008;2022-12-18T17:34:34;2.30;99.90
27534;DHT22;14973;51.460;7.008;2022-12-18T17:37:01;2.30;99.90
27534;DHT22;14973;51.460;7.008;2022-12-18T17:39:26;2.30;99.90
27534;DHT22;14973;51.460;7.008;2022-12-18T17:41:53;2.30;99.90
27534;DHT22;14973;51.460;7.008;2022-12-18T17:44:18;2.30;99.90